Time,TemperatureF,DewpointF,PressureIn,WindDirection,WindDirectionDegrees,WindSpeedMPH,WindSpeedGustMPH,Humidity,HourlyPrecipIn,Conditions,Clouds,dailyrainin,SoftwareType,DateUTC
2013-06-30 00:02:00,72.0,48.0,28.40,NW,311,0.0,3.0,42,0.00,,,0.00,,2013-06-30 05:02:00,
2013-06-30 00:12:00,72.0,48.0,28.40,NW,312,0.0,3.0,42,0.00,,,0.00,,2013-06-30 05:12:00,
2013-06-30 00:22:00,72.0,48.0,28.40,NW,312,0.0,3.0,42,0.00,,,0.00,,2013-06-30 05:22:00,
2013-06-30 00:33:00,72.0,48.0,28.40,NW,312,0.0,3.0,42,0.00,,,0.00,,2013-06-30 05:33:00,
2013-06-30 00:43:00,70.0,48.0,28.40,NW,312,0.0,0.0,45,0.00,,,0.00,,2013-06-30 05:43:00,
2013-06-30 00:53:00,69.0,48.0,28.40,NW,312,0.0,0.0,47,0.00,,,0.00,,2013-06-30 05:53:00,
2013-06-30 01:02:00,69.0,48.0,28.40,NW,312,0.0,0.0,48,0.00,,,0.00,,2013-06-30 06:02:00,
2013-06-30 01:12:00,69.0,49.0,28.40,NW,312,0.0,0.0,49,0.00,,,0.00,,2013-06-30 06:12:00,
2013-06-30 01:23:00,69.0,49.0,28.40,NW,312,0.0,0.0,49,0.00,,,0.00,,2013-06-30 06:23:00,
2013-06-30 01:33:00,68.0,49.0,28.40,NW,312,0.0,0.0,50,0.00,,,0.00,,2013-06-30 06:33:00,
2013-06-30 01:43:00,68.0,49.0,28.40,NW,312,0.0,0.0,50,0.00,,,0.00,,2013-06-30 06:43:00,
2013-06-30 01:44:00,67.0,49.0,28.43,NW,312,0.0,0.0,53,0.00,,,0.00,,2013-06-30 06:44:00,
2013-06-30 01:53:00,67.0,49.0,28.43,NW,312,0.0,0.0,53,0.00,,,0.00,,2013-06-30 06:53:00,
2013-06-30 02:02:00,67.0,49.0,28.43,NW,312,0.0,0.0,53,0.00,,,0.00,,2013-06-30 07:02:00,
2013-06-30 02:12:00,67.0,49.0,28.43,NW,312,0.0,0.0,53,0.00,,,0.00,,2013-06-30 07:12:00,
2013-06-30 02:22:00,67.0,49.0,28.43,NW,312,0.0,0.0,53,0.00,,,0.00,,2013-06-30 07:22:00,
2013-06-30 02:33:00,67.0,49.0,28.43,NW,312,0.0,0.0,53,0.00,,,0.00,,2013-06-30 07:33:00,
2013-06-30 03:02:00,64.0,51.0,28.40,NW,312,0.0,0.0,62,0.00,,,0.00,,2013-06-30 08:02:00,
2013-06-30 03:12:00,64.0,51.0,28.40,NW,312,0.0,0.0,62,0.00,,,0.00,,2013-06-30 08:12:00,
2013-06-30 03:22:00,64.0,51.0,28.40,NW,312,0.0,0.0,62,0.00,,,0.00,,2013-06-30 08:22:00,
2013-06-30 03:33:00,64.0,52.0,28.40,NW,312,0.0,0.0,65,0.00,,,0.00,,2013-06-30 08:33:00,
2013-06-30 03:42:00,64.0,52.0,28.40,NW,312,0.0,0.0,64,0.00,,,0.00,,2013-06-30 08:42:00,
2013-06-30 03:53:00,64.0,52.0,28.40,NW,312,0.0,0.0,64,0.00,,,0.00,,2013-06-30 08:53:00,
2013-06-30 04:01:00,64.0,52.0,28.40,NW,312,0.0,0.0,64,0.00,,,0.00,,2013-06-30 09:01:00,
2013-06-30 04:12:00,64.0,52.0,28.40,NW,312,0.0,0.0,64,0.00,,,0.00,,2013-06-30 09:12:00,
2013-06-30 04:23:00,63.0,52.0,28.43,NW,312,0.0,0.0,68,0.00,,,0.00,,2013-06-30 09:23:00,
2013-06-30 04:33:00,62.0,52.0,28.40,NW,312,0.0,0.0,69,0.00,,,0.00,,2013-06-30 09:33:00,
2013-06-30 04:43:00,62.0,52.0,28.40,NW,312,0.0,0.0,69,0.00,,,0.00,,2013-06-30 09:43:00,
2013-06-30 04:53:00,62.0,52.0,28.40,NW,312,0.0,0.0,69,0.00,,,0.00,,2013-06-30 09:53:00,
2013-06-30 05:02:00,62.0,52.0,28.40,NW,312,0.0,0.0,69,0.00,,,0.00,,2013-06-30 10:02:00,
2013-06-30 05:11:00,62.0,53.0,28.43,West,272,0.0,3.0,72,0.00,,,0.00,,2013-06-30 10:11:00,
2013-06-30 05:22:00,62.0,53.0,28.43,West,272,0.0,3.0,72,0.00,,,0.00,,2013-06-30 10:22:00,
2013-06-30 05:33:00,62.0,53.0,28.43,West,272,0.0,3.0,72,0.00,,,0.00,,2013-06-30 10:33:00,
2013-06-30 05:42:00,61.0,52.0,28.43,West,271,0.0,0.0,72,0.00,,,0.00,,2013-06-30 10:42:00,
2013-06-30 05:53:00,61.0,52.0,28.43,West,272,0.0,0.0,73,0.00,,,0.00,,2013-06-30 10:53:00,
2013-06-30 06:02:00,60.0,52.0,28.43,West,272,0.0,0.0,74,0.00,,,0.00,,2013-06-30 11:02:00,
2013-06-30 06:11:00,60.0,52.0,28.43,West,272,0.0,0.0,74,0.00,,,0.00,,2013-06-30 11:11:00,
2013-06-30 06:22:00,60.0,52.0,28.43,West,272,0.0,0.0,74,0.00,,,0.00,,2013-06-30 11:22:00,
2013-06-30 06:33:00,60.0,52.0,28.43,West,272,0.0,0.0,74,0.00,,,0.00,,2013-06-30 11:33:00,
2013-06-30 06:43:00,60.0,53.0,28.46,West,271,2.0,3.0,78,0.00,,,0.00,,2013-06-30 11:43:00,
2013-06-30 06:53:00,60.0,53.0,28.46,West,271,2.0,3.0,78,0.00,,,0.00,,2013-06-30 11:53:00,
2013-06-30 07:02:00,60.0,54.0,28.46,West,263,3.0,5.0,80,0.00,,,0.00,,2013-06-30 12:02:00,
2013-06-30 07:11:00,60.0,54.0,28.46,West,263,3.0,5.0,80,0.00,,,0.00,,2013-06-30 12:11:00,
2013-06-30 07:24:00,61.0,55.0,28.46,WSW,246,3.0,3.0,80,0.00,,,0.00,,2013-06-30 12:24:00,
2013-06-30 07:33:00,61.0,55.0,28.46,WSW,246,3.0,3.0,80,0.00,,,0.00,,2013-06-30 12:33:00,
2013-06-30 07:43:00,61.0,55.0,28.46,WSW,246,3.0,3.0,80,0.00,,,0.00,,2013-06-30 12:43:00,
2013-06-30 07:52:00,61.0,55.0,28.46,WSW,246,3.0,3.0,80,0.00,,,0.00,,2013-06-30 12:52:00,
2013-06-30 08:02:00,64.0,57.0,28.49,WSW,257,0.0,3.0,77,0.00,,,0.00,,2013-06-30 13:02:00,
2013-06-30 08:12:00,65.0,56.0,28.49,West,263,4.0,4.0,72,0.00,,,0.00,,2013-06-30 13:12:00,
2013-06-30 08:22:00,65.0,56.0,28.49,West,263,4.0,4.0,72,0.00,,,0.00,,2013-06-30 13:22:00,
2013-06-30 08:33:00,65.0,56.0,28.49,West,263,4.0,4.0,72,0.00,,,0.00,,2013-06-30 13:33:00,
2013-06-30 08:43:00,67.0,55.0,28.49,West,273,2.0,3.0,65,0.00,,,0.00,,2013-06-30 13:43:00,
2013-06-30 08:53:00,67.0,55.0,28.49,West,273,2.0,3.0,65,0.00,,,0.00,,2013-06-30 13:53:00,
2013-06-30 09:02:00,67.0,55.0,28.49,West,273,2.0,3.0,65,0.00,,,0.00,,2013-06-30 14:02:00,
2013-06-30 09:11:00,67.0,55.0,28.49,West,273,2.0,3.0,65,0.00,,,0.00,,2013-06-30 14:11:00,
2013-06-30 09:22:00,67.0,55.0,28.49,West,273,2.0,3.0,65,0.00,,,0.00,,2013-06-30 14:22:00,
2013-06-30 09:33:00,71.0,54.0,28.49,WSW,243,0.0,3.0,55,0.00,,,0.00,,2013-06-30 14:33:00,
2013-06-30 09:44:00,71.0,54.0,28.49,WSW,243,0.0,3.0,55,0.00,,,0.00,,2013-06-30 14:44:00,
2013-06-30 09:52:00,73.0,53.0,28.49,North,0,3.0,4.0,50,0.00,,,0.00,,2013-06-30 14:52:00,
2013-06-30 10:02:00,73.0,53.0,28.49,North,0,3.0,4.0,50,0.00,,,0.00,,2013-06-30 15:02:00,
2013-06-30 10:12:00,73.0,53.0,28.49,North,0,3.0,4.0,50,0.00,,,0.00,,2013-06-30 15:12:00,
2013-06-30 10:23:00,73.0,53.0,28.49,North,0,3.0,4.0,50,0.00,,,0.00,,2013-06-30 15:23:00,
2013-06-30 10:44:00,77.0,52.0,28.49,North,2,2.0,5.0,42,0.00,,,0.00,,2013-06-30 15:44:00,
2013-06-30 10:53:00,77.0,52.0,28.49,North,2,2.0,5.0,42,0.00,,,0.00,,2013-06-30 15:53:00,
2013-06-30 11:01:00,77.0,52.0,28.49,North,2,2.0,5.0,42,0.00,,,0.00,,2013-06-30 16:01:00,
2013-06-30 11:34:00,78.0,50.0,28.49,NNW,342,0.0,5.0,37,0.00,,,0.00,,2013-06-30 16:34:00,
2013-06-30 11:44:00,79.0,50.0,28.49,NNW,343,3.0,8.0,37,0.00,,,0.00,,2013-06-30 16:44:00,
2013-06-30 11:53:00,79.0,50.0,28.49,NNW,343,3.0,8.0,37,0.00,,,0.00,,2013-06-30 16:53:00,
2013-06-30 12:01:00,79.0,50.0,28.49,NNW,343,3.0,8.0,37,0.00,,,0.00,,2013-06-30 17:01:00,
2013-06-30 12:34:00,80.0,47.0,28.49,ENE,60,6.0,6.0,32,0.00,,,0.00,,2013-06-30 17:34:00,
2013-06-30 12:43:00,80.0,47.0,28.49,NE,38,3.0,8.0,32,0.00,,,0.00,,2013-06-30 17:43:00,
2013-06-30 12:52:00,80.0,47.0,28.49,NW,308,5.0,9.0,31,0.00,,,0.00,,2013-06-30 17:52:00,
2013-06-30 13:02:00,80.0,47.0,28.49,NW,308,5.0,9.0,31,0.00,,,0.00,,2013-06-30 18:02:00,
2013-06-30 13:12:00,81.0,47.0,28.49,WSW,240,2.0,9.0,30,0.00,,,0.00,,2013-06-30 18:12:00,
2013-06-30 13:22:00,81.0,47.0,28.49,North,353,3.0,7.0,31,0.00,,,0.00,,2013-06-30 18:22:00,
2013-06-30 13:34:00,81.0,47.0,28.49,North,353,3.0,7.0,31,0.00,,,0.00,,2013-06-30 18:34:00,
2013-06-30 13:43:00,81.0,47.0,28.49,North,353,3.0,7.0,31,0.00,,,0.00,,2013-06-30 18:43:00,
2013-06-30 13:53:00,82.0,47.0,28.46,NNW,338,3.0,9.0,30,0.00,,,0.00,,2013-06-30 18:53:00,
2013-06-30 14:01:00,81.0,47.0,28.46,NNE,12,4.0,9.0,30,0.00,,,0.00,,2013-06-30 19:01:00,
2013-06-30 14:11:00,81.0,47.0,28.46,NNE,12,4.0,9.0,30,0.00,,,0.00,,2013-06-30 19:11:00,
2013-06-30 14:22:00,81.0,47.0,28.46,NNW,331,3.0,5.0,30,0.00,,,0.00,,2013-06-30 19:22:00,
2013-06-30 14:33:00,82.0,47.0,28.46,NW,318,2.0,9.0,30,0.00,,,0.00,,2013-06-30 19:33:00,
2013-06-30 14:43:00,82.0,47.0,28.46,NW,318,2.0,9.0,30,0.00,,,0.00,,2013-06-30 19:43:00,
2013-06-30 14:53:00,82.0,47.0,28.46,North,357,5.0,9.0,29,0.00,,,0.00,,2013-06-30 19:53:00,
2013-06-30 15:01:00,82.0,47.0,28.46,North,357,5.0,9.0,29,0.00,,,0.00,,2013-06-30 20:01:00,
2013-06-30 15:11:00,82.0,47.0,28.46,North,357,5.0,9.0,29,0.00,,,0.00,,2013-06-30 20:11:00,
2013-06-30 15:22:00,81.0,47.0,28.46,NNW,333,4.0,5.0,30,0.00,,,0.00,,2013-06-30 20:22:00,
2013-06-30 15:34:00,81.0,47.0,28.46,North,353,5.0,5.0,30,0.00,,,0.00,,2013-06-30 20:34:00,
2013-06-30 15:42:00,81.0,47.0,28.46,North,353,5.0,5.0,30,0.00,,,0.00,,2013-06-30 20:42:00,
2013-06-30 15:52:00,81.0,47.0,28.46,NNW,346,3.0,9.0,30,0.00,,,0.00,,2013-06-30 20:52:00,
2013-06-30 16:01:00,81.0,47.0,28.46,NE,47,5.0,9.0,30,0.00,,,0.00,,2013-06-30 21:01:00,
2013-06-30 16:11:00,81.0,46.0,28.46,NNE,21,7.0,9.0,29,0.00,,,0.00,,2013-06-30 21:11:00,
2013-06-30 16:22:00,80.0,46.0,28.46,WNW,300,0.0,3.0,30,0.00,,,0.00,,2013-06-30 21:22:00,
2013-06-30 16:34:00,80.0,46.0,28.46,WNW,300,0.0,3.0,30,0.00,,,0.00,,2013-06-30 21:34:00,
2013-06-30 16:42:00,80.0,46.0,28.46,North,353,4.0,13.0,30,0.00,,,0.00,,2013-06-30 21:42:00,
2013-06-30 16:53:00,80.0,46.0,28.46,North,357,4.0,13.0,30,0.00,,,0.00,,2013-06-30 21:53:00,
2013-06-30 17:01:00,80.0,46.0,28.46,NW,308,2.0,13.0,30,0.00,,,0.00,,2013-06-30 22:01:00,
2013-06-30 17:11:00,80.0,46.0,28.46,NNW,340,2.0,13.0,30,0.00,,,0.00,,2013-06-30 22:11:00,
2013-06-30 17:22:00,80.0,46.0,28.46,NNE,23,3.0,7.0,30,0.00,,,0.00,,2013-06-30 22:22:00,
2013-06-30 17:34:00,80.0,46.0,28.46,ENE,76,3.0,7.0,30,0.00,,,0.00,,2013-06-30 22:34:00,
2013-06-30 17:43:00,80.0,46.0,28.46,NNW,335,7.0,8.0,30,0.00,,,0.00,,2013-06-30 22:43:00,
2013-06-30 17:52:00,80.0,46.0,28.46,NNW,335,7.0,8.0,30,0.00,,,0.00,,2013-06-30 22:52:00,
2013-06-30 18:01:00,80.0,46.0,28.46,NNW,335,7.0,8.0,30,0.00,,,0.00,,2013-06-30 23:01:00,
2013-06-30 18:11:00,79.0,45.0,28.46,North,3,3.0,9.0,30,0.00,,,0.00,,2013-06-30 23:11:00,
2013-06-30 18:22:00,79.0,45.0,28.46,North,3,3.0,9.0,30,0.00,,,0.00,,2013-06-30 23:22:00,
2013-06-30 19:11:00,78.0,43.0,28.46,North,0,3.0,10.0,29,0.00,,,0.00,,2013-07-01 00:11:00,
2013-06-30 19:33:00,78.0,43.0,28.46,North,0,3.0,10.0,29,0.00,,,0.00,,2013-07-01 00:33:00,
2013-06-30 19:42:00,78.0,43.0,28.46,North,0,3.0,10.0,29,0.00,,,0.00,,2013-07-01 00:42:00,
2013-06-30 19:52:00,77.0,46.0,28.46,North,6,2.0,11.0,33,0.00,,,0.00,,2013-07-01 00:52:00,
2013-06-30 20:01:00,77.0,46.0,28.46,North,6,2.0,11.0,33,0.00,,,0.00,,2013-07-01 01:01:00,
2013-06-30 20:11:00,77.0,46.0,28.46,North,6,2.0,11.0,33,0.00,,,0.00,,2013-07-01 01:11:00,
2013-06-30 20:22:00,76.0,45.0,28.46,North,6,3.0,11.0,33,0.00,,,0.00,,2013-07-01 01:22:00,
2013-06-30 20:33:00,76.0,45.0,28.46,North,6,3.0,11.0,33,0.00,,,0.00,,2013-07-01 01:33:00,
2013-06-30 20:43:00,76.0,45.0,28.46,North,6,3.0,11.0,33,0.00,,,0.00,,2013-07-01 01:43:00,
2013-06-30 20:52:00,74.0,45.0,28.49,NNE,15,0.0,9.0,35,0.00,,,0.00,,2013-07-01 01:52:00,
2013-06-30 21:02:00,74.0,45.0,28.49,North,357,3.0,9.0,35,0.00,,,0.00,,2013-07-01 02:02:00,
2013-06-30 21:11:00,73.0,44.0,28.49,NNE,21,2.0,9.0,35,0.00,,,0.00,,2013-07-01 02:11:00,
2013-06-30 21:22:00,73.0,44.0,28.49,NNE,21,2.0,9.0,35,0.00,,,0.00,,2013-07-01 02:22:00,
2013-06-30 21:53:00,71.0,45.0,28.49,North,10,0.0,3.0,39,0.00,,,0.00,,2013-07-01 02:53:00,
2013-06-30 22:01:00,70.0,45.0,28.49,North,8,0.0,3.0,40,0.00,,,0.00,,2013-07-01 03:01:00,
2013-06-30 22:33:00,69.0,45.0,28.52,North,10,0.0,3.0,42,0.00,,,0.00,,2013-07-01 03:33:00,
2013-06-30 22:43:00,69.0,46.0,28.52,NNE,12,0.0,3.0,43,0.00,,,0.00,,2013-07-01 03:43:00,
2013-06-30 23:01:00,68.0,45.0,28.52,NNE,12,0.0,3.0,44,0.00,,,0.00,,2013-07-01 04:01:00,
2013-06-30 23:11:00,67.0,45.0,28.52,NNE,16,3.0,3.0,45,0.00,,,0.00,,2013-07-01 04:11:00,
2013-06-30 23:22:00,67.0,45.0,28.52,NNE,16,3.0,3.0,45,0.00,,,0.00,,2013-07-01 04:22:00,
2013-06-30 23:32:00,67.0,45.0,28.52,NNE,16,3.0,3.0,45,0.00,,,0.00,,2013-07-01 04:32:00,
2013-06-30 23:42:00,67.0,45.0,28.52,NNE,16,3.0,3.0,45,0.00,,,0.00,,2013-07-01 04:42:00,